WXM80 ListenWXM80 Stop

You find our weather info also at:

UK Metoffice

WeatherCloud

Weather Underground

Northeastern Weather Network

AWEKAS

Citizen Weather Observer Program (CWOP)

HAMweather, WeatherForYou, PWS Weather


Weather Underground History page Text

Daily Summary for November 19, 2017 Units:  Metric    English   Both
« Previous Day
Next Day »
Daily Weekly Monthly Yearly Custom
  High: Low: Average:
Temperature: 14.8 °C 5.8 °C 10.7 °C
Dew Point: 13.7 °C -0.9 °C 6.3 °C
Humidity: 96 % 58 % 76 %
Wind Speed: 28.6 km/h 2.6 km/h 11.4 km/h
Wind Gust: 45.1 km/h - -
Wind:- - WSW
Pressure: 1008.4 hPa 989.7 hPa -
Precipitation: 2.03 mm    
Historical Graphs
 
 
Tabular Data for November 19, 2017
Time Temperature Dew Point Pressure Wind Wind Speed Wind Gust Humidity Rainfall Rate (Hourly)
00:00 13.8 °C 12.8 °C 997.2 hPa SW 4.5 km/h 9.3 km/h 94 % 0 mm
00:05 13.8 °C 12.7 °C 996.8 hPa South 8.4 km/h 13 km/h 93 % 0 mm
00:10 13.9 °C 12.8 °C 996.8 hPa South 6.4 km/h 16.1 km/h 93 % 0 mm
00:15 13.9 °C 12.8 °C 996.5 hPa South 6.4 km/h 12.9 km/h 93 % 0 mm
00:20 13.9 °C 12.7 °C 996.5 hPa SSW 10 km/h 11.3 km/h 92 % 0 mm
00:25 14 °C 12.7 °C 996.5 hPa South 12.7 km/h 20.4 km/h 92 % 0 mm
00:30 14 °C 12.6 °C 996.2 hPa SSW 7.7 km/h 20.4 km/h 91 % 0 mm
00:35 14.1 °C 12.6 °C 995.8 hPa SW 5.3 km/h 14.8 km/h 91 % 0 mm
00:40 14.1 °C 12.6 °C 995.8 hPa SSW 10.1 km/h 14.8 km/h 91 % 0 mm
00:45 14.1 °C 12.6 °C 995.5 hPa South 8.9 km/h 18.5 km/h 91 % 0 mm
00:50 14.1 °C 12.5 °C 995.5 hPa South 9 km/h 9.7 km/h 90 % 0 mm
00:55 14.1 °C 12.5 °C 995.5 hPa SSW 7.4 km/h 11.1 km/h 90 % 0 mm
01:00 14.1 °C 12.5 °C 995.5 hPa South 8.9 km/h 18.5 km/h 90 % 0 mm
01:05 14.1 °C 12.3 °C 995.5 hPa South 11.3 km/h 22.2 km/h 89 % 0 mm
01:15 14.1 °C 12.3 °C 995.1 hPa South 6.6 km/h 22.2 km/h 89 % 0 mm
01:20 14.2 °C 12.4 °C 994.8 hPa South 8 km/h 16.1 km/h 89 % 0 mm
01:25 14.2 °C 12.4 °C 994.8 hPa South 8 km/h 20.9 km/h 89 % 0 mm
01:30 14.2 °C 12.4 °C 995.1 hPa South 4.8 km/h 19.3 km/h 89 % 0 mm
01:35 14.2 °C 12.4 °C 994.8 hPa SSW 8 km/h 19.3 km/h 89 % 0 mm
01:41 14.2 °C 12.4 °C 994.8 hPa SSW 11.3 km/h 16.1 km/h 89 % 0 mm
01:46 14.3 °C 12.5 °C 994.5 hPa South 4.8 km/h 32.2 km/h 89 % 0 mm
01:50 14.3 °C 12.6 °C 994.5 hPa South 11.3 km/h 19.3 km/h 89 % 0 mm
02:00 14.4 °C 12.7 °C 994.1 hPa South 9 km/h 13 km/h 89 % 0 mm
02:05 14.5 °C 12.7 °C 994.1 hPa SSW 9.2 km/h 13 km/h 89 % 0 mm
02:20 14.7 °C 12.9 °C 993.8 hPa SSW 9.7 km/h 27.4 km/h 89 % 0 mm
02:25 14.7 °C 12.9 °C 993.8 hPa SSW 8 km/h 19.3 km/h 89 % 0 mm
02:30 14.7 °C 12.9 °C 993.8 hPa SSW 8 km/h 19.3 km/h 89 % 0 mm
02:40 14.8 °C 13.1 °C 993.8 hPa SSW 8.5 km/h 12.9 km/h 89 % 0 mm
02:45 14.8 °C 13.2 °C 993.5 hPa SSW 8 km/h 25.7 km/h 90 % 0 mm
02:50 14.8 °C 13.2 °C 993.5 hPa SSW 11.3 km/h 20.9 km/h 90 % 0 mm
03:01 14.7 °C 13.3 °C 993.1 hPa SSE 9.7 km/h 22.5 km/h 91 % 0 mm
03:06 14.7 °C 13.4 °C 993.1 hPa SSW 9.8 km/h 11.3 km/h 92 % 0 mm
03:10 14.6 °C 13.3 °C 992.8 hPa SSW 12.1 km/h 18.5 km/h 92 % 0 mm
03:16 14.6 °C 13.3 °C 992.8 hPa SSW 9.7 km/h 19.3 km/h 92 % 0 mm
03:21 14.6 °C 13.3 °C 992.8 hPa SSW 8 km/h 32.2 km/h 92 % 0 mm
03:26 14.6 °C 13.3 °C 992.8 hPa SSW 4.8 km/h 20.9 km/h 92 % 0 mm
03:31 14.6 °C 13.4 °C 992.4 hPa SSW 12.9 km/h 22.5 km/h 93 % 0 mm
03:36 14.5 °C 13.4 °C 992.4 hPa SSW 11.3 km/h 19.3 km/h 93 % 0 mm
03:41 14.5 °C 13.4 °C 992.1 hPa SSW 9.7 km/h 19.3 km/h 93 % 0 mm
03:56 14.3 °C 13.2 °C 992.1 hPa SSW 11.3 km/h 20.9 km/h 93 % 0 mm
04:01 14.3 °C 13.2 °C 992.1 hPa South 4.5 km/h 9.3 km/h 93 % 0 mm
04:06 14.2 °C 13.3 °C 992.1 hPa SSW 9.8 km/h 16.7 km/h 94 % 0 mm
04:16 14.2 °C 13.3 °C 992.1 hPa SSW 13.5 km/h 24.1 km/h 94 % 0 mm
04:26 14.3 °C 13.3 °C 991.8 hPa SSW 8.9 km/h 14.8 km/h 94 % 0 mm
04:31 14.3 °C 13.5 °C 991.4 hPa South 6.6 km/h 11.1 km/h 95 % 0 mm
04:36 14.2 °C 13.4 °C 991.4 hPa SSW 4.8 km/h 11.1 km/h 95 % 0 mm
04:41 14.2 °C 13.4 °C 991.4 hPa SSE 6.3 km/h 9.7 km/h 95 % 0 mm
04:46 14.2 °C 13.4 °C 991.4 hPa South 7.1 km/h 22.2 km/h 95 % 0 mm
04:51 14.2 °C 13.4 °C 991.1 hPa SSW 5.8 km/h 13 km/h 95 % 0 mm
04:56 14.2 °C 13.4 °C 991.1 hPa SSW 7.7 km/h 14.8 km/h 95 % 0 mm
05:06 14.2 °C 13.4 °C 990.7 hPa SSW 10.3 km/h 18.5 km/h 95 % 0 mm
05:11 14.2 °C 13.4 °C 990.7 hPa South 7.2 km/h 20.4 km/h 95 % 0 mm
05:17 14.2 °C 13.4 °C 991.1 hPa SSW 10 km/h 18.5 km/h 95 % 0 mm
05:22 14.2 °C 13.4 °C 991.4 hPa SSW 8.2 km/h 27.8 km/h 95 % 0 mm
05:27 14.2 °C 13.6 °C 991.1 hPa South 11.3 km/h 18.5 km/h 96 % 0 mm
05:32 14.3 °C 13.7 °C 991.1 hPa SSW 8.4 km/h 16.7 km/h 96 % 0 mm
05:42 14.3 °C 13.7 °C 990.4 hPa SW 10.5 km/h 19.3 km/h 96 % 0 mm
05:47 14.3 °C 13.7 °C 990.4 hPa South 9.8 km/h 18.5 km/h 96 % 0 mm
05:52 14.3 °C 13.7 °C 990.4 hPa SSW 8.4 km/h 24.1 km/h 96 % 0 mm
05:57 14.3 °C 13.7 °C 990.1 hPa South 6.3 km/h 9.7 km/h 96 % 0 mm
06:02 14.3 °C 13.7 °C 990.1 hPa SW 10.3 km/h 16.1 km/h 96 % 0 mm
06:07 14.3 °C 13.7 °C 990.1 hPa South 14.6 km/h 25.9 km/h 96 % 0 mm
06:17 14.3 °C 13.7 °C 990.1 hPa SSW 9.5 km/h 16.7 km/h 96 % 0 mm
06:22 14.3 °C 13.7 °C 989.7 hPa SSW 9.3 km/h 18.5 km/h 96 % 0 mm
06:27 14.3 °C 13.7 °C 990.1 hPa SSE 6.8 km/h 24.1 km/h 96 % 0 mm
06:32 14.3 °C 13.7 °C 990.4 hPa SSW 13.4 km/h 13.4 km/h 96 % 0 mm
06:37 14.3 °C 13.7 °C 989.7 hPa SSW 9.3 km/h 24.1 km/h 96 % 0 mm
06:43 14.3 °C 13.7 °C 989.7 hPa SSW 9.3 km/h 18.5 km/h 96 % 0 mm
06:53 14.3 °C 13.7 °C 989.7 hPa South 8.7 km/h 13 km/h 96 % 0 mm
06:58 14.3 °C 13.7 °C 989.7 hPa WSW 6.8 km/h 22.2 km/h 96 % 0 mm
07:03 14.3 °C 13.7 °C 990.1 hPa SSW 9.2 km/h 20.4 km/h 96 % 0 mm
07:05 14.3 °C 13.7 °C 990.1 hPa SSW 7.4 km/h 14.8 km/h 96 % 0 mm
07:10 14.3 °C 13.7 °C 990.1 hPa SW 11.4 km/h 17.7 km/h 96 % 0 mm
07:15 14.3 °C 13.7 °C 990.1 hPa SSW 10 km/h 31.5 km/h 96 % 0 mm
07:20 14.3 °C 13.7 °C 990.1 hPa SW 6.6 km/h 11.1 km/h 96 % 0 mm
07:25 14.3 °C 13.7 °C 989.7 hPa SW 8 km/h 16.7 km/h 96 % 0 mm
07:30 14.2 °C 13.6 °C 989.7 hPa SSW 6.8 km/h 20.4 km/h 96 % 0 mm
07:35 14.1 °C 13.3 °C 989.7 hPa South 12.6 km/h 22.2 km/h 95 % 0 mm
07:40 13.9 °C 13.2 °C 990.1 hPa SW 8.9 km/h 18.5 km/h 95 % 0 mm
07:50 13.8 °C 13 °C 990.1 hPa SW 10.3 km/h 22.5 km/h 95 % 0 mm
07:55 13.7 °C 12.9 °C 990.1 hPa South 11.4 km/h 18.5 km/h 95 % 0 mm
08:26 13.5 °C 12.7 °C 990.4 hPa SSW 12.9 km/h 29 km/h 95 % 0 mm
08:36 13.5 °C 12.7 °C 990.4 hPa SW 20.9 km/h 37 km/h 95 % 0 mm
08:46 13.3 °C 11.8 °C 991.1 hPa SW 14.5 km/h 27.4 km/h 91 % 0 mm
08:51 13.2 °C 11.4 °C 991.1 hPa WSW 12.9 km/h 35.4 km/h 89 % 0 mm
08:56 13 °C 10.3 °C 991.4 hPa WSW 19.3 km/h 45.1 km/h 84 % 0 mm
09:06 12.8 °C 9.2 °C 991.8 hPa West 16.3 km/h 35.2 km/h 79 % 0 mm
09:11 12.8 °C 9.1 °C 992.1 hPa WSW 22 km/h 42.6 km/h 78 % 0 mm
09:16 12.9 °C 8.8 °C 992.1 hPa SW 13.8 km/h 22.2 km/h 76 % 0 mm
09:26 12.7 °C 8.4 °C 992.4 hPa WSW 13.2 km/h 24.1 km/h 75 % 0 mm
09:46 12.6 °C 7.8 °C 993.1 hPa NW 15.1 km/h 20.9 km/h 73 % 0 mm
09:51 12.5 °C 7.8 °C 993.5 hPa WNW 16.4 km/h 17.7 km/h 73 % 0 mm
09:56 12.3 °C 7.6 °C 993.8 hPa NNW 9.3 km/h 17.7 km/h 73 % 0 mm
10:08 12.2 °C 6.8 °C 994.1 hPa NW 14.5 km/h 22.2 km/h 70 % 0 mm
10:13 11.9 °C 5.8 °C 994.5 hPa West 18.7 km/h 31.5 km/h 66 % 0 mm
10:23 11.8 °C 5.6 °C 995.1 hPa West 12.1 km/h 22.2 km/h 66 % 0 mm
10:33 11.6 °C 5 °C 995.5 hPa WNW 9.5 km/h 27.8 km/h 64 % 0 mm
10:48 11.4 °C 5.1 °C 995.5 hPa NW 18.3 km/h 31.5 km/h 65 % 0 mm
10:53 11.3 °C 5 °C 995.5 hPa WSW 10.3 km/h 24.1 km/h 65 % 0 mm
10:58 11.2 °C 5.1 °C 995.8 hPa NNW 10.9 km/h 25.7 km/h 66 % 0 mm
11:03 11.1 °C 4.5 °C 995.8 hPa WNW 17.4 km/h 25.9 km/h 64 % 0 mm
11:08 10.8 °C 4 °C 996.2 hPa SW 20 km/h 31.5 km/h 63 % 0 mm
11:22 10.3 °C 3.3 °C 996.2 hPa West 20.1 km/h 31.5 km/h 62 % 0 mm
11:27 10.2 °C 3.5 °C 996.5 hPa WNW 13.8 km/h 38.9 km/h 63 % 0 mm
11:32 10.1 °C 3.6 °C 996.8 hPa NE 18.3 km/h 38.9 km/h 64 % 0 mm
11:37 9.9 °C 3.4 °C 996.5 hPa WNW 11.4 km/h 31.5 km/h 64 % 0 mm
11:42 9.9 °C 3.4 °C 997.2 hPa WNW 28.6 km/h 45.1 km/h 64 % 0 mm
11:47 9.9 °C 3.2 °C 996.8 hPa WNW 15.4 km/h 33.3 km/h 63 % 0 mm
11:52 9.9 °C 3 °C 997.2 hPa West 23.7 km/h 38.9 km/h 62 % 0 mm
11:57 9.9 °C 3 °C 997.2 hPa NNW 23.3 km/h 35.2 km/h 62 % 0 mm
12:02 10 °C 3.3 °C 997.2 hPa SSW 14.8 km/h 40.7 km/h 63 % 0 mm
12:07 10 °C 3.5 °C 997.5 hPa NW 13.5 km/h 44.4 km/h 64 % 0 mm
12:17 9.8 °C 3.1 °C 997.9 hPa WSW 22.7 km/h 35.2 km/h 63 % 0 mm
12:28 9.8 °C 3.1 °C 997.9 hPa WSW 13.2 km/h 25.9 km/h 63 % 0 mm
12:32 9.8 °C 3.1 °C 998.2 hPa NNW 16.4 km/h 31.5 km/h 63 % 0 mm
12:58 9.5 °C 3 °C 998.5 hPa West 16.7 km/h 31.5 km/h 64 % 0 mm
13:03 9.4 °C 2.5 °C 998.9 hPa NW 21.9 km/h 37 km/h 62 % 0 mm
13:08 9.4 °C 2.9 °C 998.9 hPa West 14.2 km/h 27.8 km/h 64 % 0 mm
13:13 9.6 °C 3.1 °C 998.9 hPa NW 16.9 km/h 29.6 km/h 64 % 0 mm
13:18 9.6 °C 2.9 °C 998.9 hPa NE 7.2 km/h 27.8 km/h 63 % 0 mm
13:23 9.7 °C 2.5 °C 998.9 hPa WNW 12.2 km/h 27.8 km/h 61 % 0 mm
13:28 9.6 °C 2.4 °C 998.9 hPa WNW 19.8 km/h 37 km/h 61 % 0 mm
13:33 9.6 °C 2.2 °C 998.9 hPa NW 15.1 km/h 31.5 km/h 60 % 0 mm
13:38 9.4 °C 2.5 °C 999.2 hPa West 17.5 km/h 29 km/h 62 % 0 mm
13:43 9.4 °C 2.2 °C 998.9 hPa WNW 19.5 km/h 31.5 km/h 61 % 0 mm
13:49 9.4 °C 2.4 °C 999.2 hPa WNW 23.3 km/h 33.8 km/h 62 % 0 mm
13:59 9.5 °C 2.6 °C 999.2 hPa NNW 12.9 km/h 22.2 km/h 62 % 0 mm
14:19 9.2 °C 2.3 °C 999.9 hPa WNW 19 km/h 32.2 km/h 62 % 0 mm
14:24 9.2 °C 2.9 °C 999.9 hPa NW 14.8 km/h 25.9 km/h 65 % 0 mm
14:29 9.1 °C 3.1 °C 1000.2 hPa West 19.5 km/h 42.6 km/h 66 % 0 mm
14:34 8.9 °C 2.7 °C 1000.2 hPa East 13.7 km/h 24.1 km/h 65 % 0 mm
14:44 8.7 °C 2.3 °C 1000.6 hPa West 11.4 km/h 25.9 km/h 64 % 0 mm
14:54 8.6 °C 1.9 °C 1000.9 hPa WNW 21.9 km/h 42.6 km/h 63 % 0 mm
15:09 8.3 °C 1.9 °C 1001.2 hPa NW 12.6 km/h 22.2 km/h 64 % 0 mm
15:19 8.2 °C 1.3 °C 1001.6 hPa West 18 km/h 35.2 km/h 62 % 0 mm
15:24 8.1 °C 1.5 °C 1001.6 hPa NNW 14.8 km/h 38.9 km/h 63 % 0 mm
15:29 8 °C 1.4 °C 1001.6 hPa WNW 17.5 km/h 33.3 km/h 63 % 0 mm
15:34 7.9 °C 1.3 °C 1001.6 hPa West 17.1 km/h 29.6 km/h 63 % 0 mm
15:49 7.8 °C 1 °C 1001.9 hPa West 14.5 km/h 29.6 km/h 62 % 0 mm
15:59 7.8 °C 1.2 °C 1002.3 hPa West 10 km/h 18.5 km/h 63 % 0 mm
16:04 7.8 °C 0.9 °C 1002.3 hPa NW 8.2 km/h 31.5 km/h 62 % 0 mm
16:09 7.7 °C 1.1 °C 1002.3 hPa NNW 15.6 km/h 22.2 km/h 63 % 0 mm
16:14 7.7 °C 1.1 °C 1002.6 hPa WNW 11.7 km/h 14.8 km/h 63 % 0 mm
16:19 7.7 °C 1.1 °C 1002.6 hPa West 7.1 km/h 18.5 km/h 63 % 0 mm
16:24 7.6 °C 0.6 °C 1002.6 hPa West 13.5 km/h 24.1 km/h 61 % 0 mm
16:29 7.6 °C 1 °C 1002.6 hPa WNW 15 km/h 27.8 km/h 63 % 0 mm
16:39 7.6 °C 1.2 °C 1002.9 hPa NW 14.3 km/h 31.5 km/h 64 % 0 mm
16:44 7.6 °C 0.8 °C 1003.3 hPa NW 21.9 km/h 27.4 km/h 62 % 0 mm
16:50 7.6 °C 0.3 °C 1003.3 hPa NW 15.1 km/h 27.8 km/h 60 % 0 mm
16:55 7.4 °C -0.1 °C 1003.3 hPa NW 9.7 km/h 31.5 km/h 59 % 0 mm
17:05 7.3 °C -0.4 °C 1003.3 hPa NNW 17.4 km/h 29.6 km/h 58 % 0 mm
17:15 7.3 °C 0 °C 1003.6 hPa WNW 14.8 km/h 25.9 km/h 60 % 0 mm
17:25 7.2 °C -0.1 °C 1003.9 hPa NW 16.4 km/h 35.4 km/h 60 % 0.25 mm
17:30 7.2 °C 0.2 °C 1004.3 hPa WNW 16.1 km/h 38.9 km/h 61 % 0.25 mm
17:35 7.1 °C -0.4 °C 1004.3 hPa WNW 20.3 km/h 33.8 km/h 59 % 0.51 mm
17:40 7.1 °C -0.2 °C 1004.6 hPa NW 16.3 km/h 27.8 km/h 60 % 0.51 mm
17:50 7 °C -0.2 °C 1004.3 hPa WNW 13.5 km/h 31.5 km/h 60 % 0.76 mm
17:55 6.9 °C -0.3 °C 1004.3 hPa WNW 5.3 km/h 19.3 km/h 60 % 0.76 mm
18:00 6.9 °C -0.6 °C 1004.6 hPa NNW 11.3 km/h 18.5 km/h 59 % 1.02 mm
18:05 6.8 °C -0.4 °C 1004.6 hPa West 7.4 km/h 16.1 km/h 60 % 1.02 mm
18:10 6.8 °C -0.4 °C 1004.6 hPa West 9.3 km/h 19.3 km/h 60 % 1.02 mm
18:15 6.8 °C -0.2 °C 1005 hPa WNW 8.2 km/h 24.1 km/h 61 % 1.02 mm
18:20 6.8 °C -0.2 °C 1005 hPa WNW 5.8 km/h 13 km/h 61 % 1.27 mm
18:35 6.8 °C -0.7 °C 1005 hPa NW 9 km/h 20.9 km/h 59 % 1.02 mm
18:40 6.8 °C -0.4 °C 1005.3 hPa WNW 13.2 km/h 22.5 km/h 60 % 1.02 mm
18:45 6.8 °C -0.9 °C 1005.3 hPa West 14.2 km/h 27.8 km/h 58 % 1.02 mm
18:50 6.8 °C -0.7 °C 1005.6 hPa WNW 15.4 km/h 33.3 km/h 59 % 0.76 mm
18:55 6.8 °C -0.6 °C 1005.3 hPa West 8.7 km/h 18.5 km/h 59 % 0.76 mm
19:00 6.8 °C -0.4 °C 1005.6 hPa SW 13.7 km/h 16.7 km/h 60 % 0.76 mm
19:05 6.8 °C -0.4 °C 1005.6 hPa WNW 8.5 km/h 14.8 km/h 60 % 0.76 mm
19:15 6.8 °C -0.7 °C 1005.6 hPa West 8 km/h 16.7 km/h 59 % 0.76 mm
19:31 6.7 °C -0.5 °C 1006 hPa WSW 6.6 km/h 11.3 km/h 60 % 0.76 mm
19:36 6.7 °C -0.5 °C 1006 hPa WNW 8 km/h 14.5 km/h 60 % 0 mm
19:41 6.7 °C -0.6 °C 1006 hPa WNW 4.8 km/h 12.9 km/h 60 % 0 mm
19:51 6.6 °C -0.6 °C 1006 hPa West 4.8 km/h 19.3 km/h 60 % 0 mm
20:06 6.6 °C -0.7 °C 1006.3 hPa NW 9.7 km/h 32.2 km/h 60 % 0 mm
20:11 6.6 °C -0.4 °C 1006.3 hPa WNW 8.5 km/h 24.1 km/h 61 % 0.25 mm
20:16 6.6 °C -0.4 °C 1006.3 hPa WSW 14 km/h 24.1 km/h 61 % 0.25 mm
20:21 6.6 °C -0.4 °C 1006.3 hPa WNW 11.3 km/h 32.2 km/h 61 % 0 mm
20:31 6.6 °C -0.4 °C 1006.3 hPa WNW 12.9 km/h 32.2 km/h 61 % 0 mm
20:36 6.6 °C -0.6 °C 1006.7 hPa NW 12.9 km/h 25.7 km/h 60 % 0 mm
20:46 6.7 °C -0.1 °C 1006.7 hPa WNW 9.7 km/h 19.3 km/h 62 % 0 mm
21:01 6.7 °C 0.1 °C 1006.7 hPa South 12.7 km/h 20.4 km/h 63 % 0 mm
21:06 6.7 °C 0.1 °C 1006.7 hPa WSW 10.3 km/h 25.9 km/h 63 % 0 mm
21:10 6.7 °C 0.3 °C 1006.7 hPa WNW 10.6 km/h 16.1 km/h 64 % 0 mm
21:15 6.7 °C 0.1 °C 1007 hPa WNW 6.4 km/h 18.5 km/h 63 % 0 mm
21:26 6.7 °C 0.1 °C 1007 hPa West 3.2 km/h 20.9 km/h 63 % 0 mm
21:41 6.6 °C 0.2 °C 1007.3 hPa WNW 6.6 km/h 6.6 km/h 64 % 0 mm
21:46 6.4 °C 0.1 °C 1007.3 hPa West 7.9 km/h 20.4 km/h 64 % 0 mm
21:51 6.4 °C -0.2 °C 1007.3 hPa WNW 12.1 km/h 20.4 km/h 63 % 0 mm
21:56 6.3 °C 0 °C 1007.3 hPa West 6.6 km/h 16.7 km/h 64 % 0 mm
22:01 6.3 °C 0.2 °C 1007.3 hPa West 6.9 km/h 20.4 km/h 65 % 0 mm
22:06 6.3 °C 0.2 °C 1007.3 hPa SSW 5.6 km/h 11.1 km/h 65 % 0 mm
22:11 6.3 °C 0.2 °C 1007.7 hPa West 6 km/h 14.8 km/h 65 % 0 mm
22:16 6.2 °C 0.1 °C 1007.3 hPa NW 2.6 km/h 5.6 km/h 65 % 0 mm
22:26 6.1 °C -0.2 °C 1007.7 hPa WNW 9.2 km/h 14.8 km/h 64 % 0 mm
22:31 6.1 °C 0 °C 1007.7 hPa West 9.5 km/h 19.3 km/h 65 % 0 mm
22:36 6.2 °C 0.1 °C 1008 hPa WSW 10.1 km/h 14.8 km/h 65 % 0 mm
22:41 6.2 °C 0.1 °C 1008 hPa WNW 10.1 km/h 22.2 km/h 65 % 0 mm
22:46 6.2 °C 0.1 °C 1007.7 hPa WSW 4.7 km/h 24.1 km/h 65 % 0 mm
22:51 6.3 °C 0.2 °C 1008 hPa West 6.3 km/h 8 km/h 65 % 0 mm
22:56 6.3 °C 0.7 °C 1008 hPa WSW 19.3 km/h 24.1 km/h 67 % 0 mm
23:06 6.3 °C 1.1 °C 1008 hPa WSW 15.6 km/h 18.5 km/h 69 % 0 mm
23:11 6.3 °C 1.1 °C 1008 hPa WNW 4.8 km/h 14.8 km/h 69 % 0 mm
23:16 6.3 °C 0.8 °C 1008 hPa WSW 8.2 km/h 25.9 km/h 68 % 0 mm
23:22 6.2 °C 0.7 °C 1008 hPa WSW 12.4 km/h 22.2 km/h 68 % 0 mm
23:27 6.2 °C 0.7 °C 1008.4 hPa WSW 4.2 km/h 11.1 km/h 68 % 0 mm
23:32 6.1 °C 0.6 °C 1008 hPa WSW 7.1 km/h 20.4 km/h 68 % 0 mm
23:37 6 °C 0.7 °C 1008.4 hPa West 5.5 km/h 20.4 km/h 69 % 0 mm
23:42 5.9 °C 0.9 °C 1008.4 hPa WSW 8.2 km/h 13 km/h 70 % 0 mm
23:52 5.8 °C 0.9 °C 1008.4 hPa NW 6.4 km/h 13 km/h 71 % 0 mm
Crab Meadow Weather
Compliments of Weather Underground - 2.5 mb

Script developed by  Jim McMurry - jmcmurry@mwt.net Adapted for the template by  Wim van der Kuil - Leuven-Template.eu

Barometer: A barometer is an instrument used to measure atmospheric pressure. A barometer is commonly used for weather prediction, as high air pressure in a region indicates fair weather while low pressure indicates that storms are more likely. When used in combination with wind observations, reasonably accurate short-term forecasts can be made.